Time;durP1;ratioP1;P1;durP2;ratioP2;P2;SDS_P1;SDS_P2;PMS_P1;PMS_P2;Temp;Humidity;BMP_temperature;BMP_pressure;BME280_temperature;BME280_humidity;BME280_pressure;Samples;Min_cycle;Max_cycle;Signal;HPM_P1;HPM_P2
2022/02/15 00:02:41;;;;;;;6.85;1.17;;;;;;;5.99;100.00;100150.41;6274833;28;20061;-76
2022/02/15 00:05:43;;;;;;;3.63;0.95;;;;;;;5.95;100.00;100146.25;6275135;28;20059;-76
2022/02/15 00:08:44;;;;;;;1.88;0.70;;;;;;;5.95;100.00;100159.28;6275027;28;20519;-76
2022/02/15 00:11:45;;;;;;;6.53;0.93;;;;;;;5.95;100.00;100164.50;6274745;28;20496;-76
2022/02/15 00:14:47;;;;;;;1.80;0.50;;;;;;;6.02;100.00;100171.13;6274943;28;20136;-76
2022/02/15 00:17:49;;;;;;;0.45;0.40;;;;;;;6.03;100.00;100170.22;6274851;28;20060;-76
2022/02/15 00:20:51;;;;;;;4.13;0.50;;;;;;;6.00;100.00;100172.97;6274553;28;20055;-76
2022/02/15 00:23:52;;;;;;;2.38;0.93;;;;;;;6.02;100.00;100167.69;6274813;28;20053;-77
2022/02/15 00:26:54;;;;;;;1.05;0.50;;;;;;;6.00;100.00;100166.91;6274596;28;20064;-76
2022/02/15 00:29:55;;;;;;;0.85;0.70;;;;;;;6.02;100.00;100172.91;6274643;28;20044;-76
2022/02/15 00:32:57;;;;;;;2.25;0.90;;;;;;;6.01;100.00;100179.88;6273019;28;20496;-77
2022/02/15 00:35:59;;;;;;;1.65;0.70;;;;;;;6.07;100.00;100183.97;6274671;28;20060;-77
2022/02/15 00:39:00;;;;;;;3.00;1.80;;;;;;;6.06;100.00;100188.34;6274387;28;20056;-76
2022/02/15 00:42:01;;;;;;;1.77;0.65;;;;;;;6.01;100.00;100190.31;6273722;28;20052;-76
2022/02/15 00:45:04;;;;;;;8.10;1.10;;;;;;;6.04;100.00;100191.94;6274014;28;20474;-76
2022/02/15 00:48:07;;;;;;;2.78;0.98;;;;;;;6.05;100.00;100193.66;6274026;28;20060;-76
2022/02/15 00:51:08;;;;;;;0.98;0.82;;;;;;;6.09;100.00;100203.88;6273926;28;20492;-76
2022/02/15 00:54:09;;;;;;;0.98;0.90;;;;;;;6.12;100.00;100200.28;6273833;28;20045;-76
2022/02/15 00:57:11;;;;;;;1.42;0.73;;;;;;;6.17;100.00;100192.25;6274133;28;20049;-76
2022/02/15 01:00:14;;;;;;;6.18;0.70;;;;;;;6.18;100.00;100196.56;6273559;28;20070;-77
2022/02/15 01:03:17;;;;;;;1.48;0.95;;;;;;;6.15;100.00;100210.59;6273920;28;20488;-78
2022/02/15 01:06:18;;;;;;;5.78;1.05;;;;;;;6.19;100.00;100204.31;6273423;28;20540;-76
2022/02/15 01:09:20;;;;;;;4.32;1.27;;;;;;;6.27;100.00;100207.44;6273585;28;20416;-76
2022/02/15 01:12:21;;;;;;;5.95;0.95;;;;;;;6.26;100.00;100223.16;6273390;28;20056;-77
2022/02/15 01:15:22;;;;;;;0.70;0.50;;;;;;;6.28;100.00;100214.34;6273381;28;20420;-76
2022/02/15 01:18:27;;;;;;;1.02;0.60;;;;;;;6.35;100.00;100222.75;6273568;28;20049;-76
2022/02/15 01:21:28;;;;;;;1.60;0.77;;;;;;;6.34;100.00;100213.22;6273015;28;20083;-77
2022/02/15 01:24:29;;;;;;;0.80;0.60;;;;;;;6.32;100.00;100218.53;6273407;28;20053;-76
2022/02/15 01:27:31;;;;;;;2.28;1.10;;;;;;;6.31;100.00;100219.44;6273189;28;20053;-76
2022/02/15 01:30:32;;;;;;;1.13;0.90;;;;;;;6.32;100.00;100223.75;6273095;28;20052;-76
2022/02/15 01:33:36;;;;;;;1.23;1.00;;;;;;;6.37;100.00;100228.75;6272901;28;20052;-76
2022/02/15 01:36:37;;;;;;;4.57;0.90;;;;;;;6.38;100.00;100238.28;6273129;28;20052;-76
2022/02/15 01:39:38;;;;;;;4.15;1.00;;;;;;;6.39;100.00;100226.06;6272893;28;20049;-77
2022/02/15 01:42:40;;;;;;;1.55;1.00;;;;;;;6.39;100.00;100234.75;6272105;28;20045;-77
2022/02/15 01:45:41;;;;;;;0.80;0.73;;;;;;;6.38;100.00;100235.66;6272938;28;20060;-76
2022/02/15 01:48:47;;;;;;;1.85;1.13;;;;;;;6.40;100.00;100236.44;6272743;28;20056;-76
2022/02/15 01:51:48;;;;;;;1.63;0.80;;;;;;;6.37;100.00;100240.97;6272455;28;20080;-76
2022/02/15 01:54:50;;;;;;;3.83;1.02;;;;;;;6.34;100.00;100237.56;6272467;28;20511;-77
2022/02/15 01:57:52;;;;;;;5.93;1.00;;;;;;;6.33;100.00;100242.84;6275096;28;20520;-77
2022/02/15 02:00:53;;;;;;;2.90;0.93;;;;;;;6.35;100.00;100241.84;6286979;28;20052;-76
2022/02/15 02:03:56;;;;;;;1.38;1.13;;;;;;;6.34;100.00;100234.94;6288880;28;20036;-77
2022/02/15 02:06:56;;;;;;;3.33;1.10;;;;;;;6.33;100.00;100240.25;6288615;28;20053;-76
2022/02/15 02:09:58;;;;;;;0.85;0.75;;;;;;;6.34;100.00;100247.16;6291223;28;20428;-76
2022/02/15 02:12:59;;;;;;;2.30;1.38;;;;;;;6.44;100.00;100243.22;6293902;28;20047;-76
2022/02/15 02:16:00;;;;;;;5.50;1.55;;;;;;;6.34;100.00;100240.16;6293595;28;20045;-76
2022/02/15 02:19:03;;;;;;;5.25;1.70;;;;;;;6.39;100.00;100246.94;6285742;28;20044;-76
2022/02/15 02:22:06;;;;;;;1.30;1.02;;;;;;;6.39;100.00;100257.38;6296280;28;20508;-76
2022/02/15 02:25:09;;;;;;;2.00;1.50;;;;;;;6.37;100.00;100249.63;6296785;28;20052;-76
2022/02/15 02:28:11;;;;;;;3.97;1.08;;;;;;;6.40;100.00;100243.41;6296692;28;20051;-76
2022/02/15 02:31:12;;;;;;;1.55;1.30;;;;;;;6.37;100.00;100249.63;6290187;28;20048;-76
2022/02/15 02:34:14;;;;;;;3.63;1.35;;;;;;;6.43;100.00;100244.13;6288150;28;20055;-76
2022/02/15 02:37:16;;;;;;;4.07;1.30;;;;;;;6.39;100.00;100254.78;6296636;28;20055;-76
2022/02/15 02:40:18;;;;;;;2.45;0.90;;;;;;;6.33;100.00;100248.91;6296237;28;20408;-76
2022/02/15 02:43:19;;;;;;;3.70;1.30;;;;;;;6.29;100.00;100255.19;6296197;28;20416;-76
2022/02/15 02:46:21;;;;;;;2.13;1.92;;;;;;;6.35;100.00;100267.09;6296232;28;20048;-76
2022/02/15 02:49:22;;;;;;;5.20;1.52;;;;;;;6.32;100.00;100262.03;6296571;28;20056;-76
2022/02/15 02:52:25;;;;;;;2.35;1.50;;;;;;;6.40;100.00;100272.13;6296015;28;20539;-75
2022/02/15 02:55:26;;;;;;;4.38;2.92;;;;;;;6.40;100.00;100272.13;6295771;28;20434;-76
2022/02/15 02:58:28;;;;;;;5.50;1.85;;;;;;;6.38;100.00;100274.81;6296431;28;20045;-74
2022/02/15 03:01:29;;;;;;;3.95;1.67;;;;;;;6.38;100.00;100273.97;6295963;28;20048;-75
2022/02/15 03:04:30;;;;;;;8.57;2.05;;;;;;;6.34;100.00;100273.25;6296220;28;20056;-76
2022/02/15 03:07:34;;;;;;;3.35;1.98;;;;;;;6.30;100.00;100285.56;6296065;28;20055;-76
2022/02/15 03:10:35;;;;;;;2.30;1.50;;;;;;;6.32;100.00;100282.91;6295752;28;20131;-76
2022/02/15 03:13:37;;;;;;;2.95;1.77;;;;;;;6.22;100.00;100287.69;6295964;28;20056;-76
2022/02/15 03:16:38;;;;;;;2.78;2.08;;;;;;;6.14;100.00;100294.13;6296006;28;20631;-76
2022/02/15 03:19:39;;;;;;;2.80;1.83;;;;;;;6.15;100.00;100293.22;6295697;28;20044;-76
2022/02/15 03:22:42;;;;;;;4.03;2.10;;;;;;;6.22;100.00;100292.03;6295690;28;20052;-75
2022/02/15 03:25:43;;;;;;;8.32;2.75;;;;;;;6.20;100.00;100299.94;6295943;28;20068;-76
2022/02/15 03:28:45;;;;;;;2.00;1.48;;;;;;;6.22;100.00;100312.91;6296151;28;20048;-75
2022/02/15 03:31:46;;;;;;;3.67;1.90;;;;;;;6.25;100.00;100305.78;6295684;28;20048;-76
2022/02/15 03:34:48;;;;;;;3.40;2.00;;;;;;;6.19;100.00;100315.66;6295777;28;20048;-76
2022/02/15 03:37:50;;;;;;;4.93;2.10;;;;;;;6.09;100.00;100321.25;6295946;28;20049;-76
2022/02/15 03:44:10;;;;;;;4.22;1.95;;;;;;;6.16;100.00;100328.81;6284466;28;20053;-76
2022/02/15 03:47:11;;;;;;;6.72;3.10;;;;;;;6.06;100.00;100324.00;6295530;28;20049;-76
2022/02/15 03:50:13;;;;;;;3.30;2.15;;;;;;;6.07;100.00;100332.66;6295280;28;20420;-76
2022/02/15 03:53:16;;;;;;;5.30;1.95;;;;;;;6.13;100.00;100344.59;6295436;28;20052;-75
2022/02/15 03:56:17;;;;;;;3.88;2.50;;;;;;;6.08;100.00;100348.25;6294450;28;20044;-76
2022/02/15 03:59:19;;;;;;;11.68;2.17;;;;;;;6.12;100.00;100348.13;6277264;28;20057;-75
2022/02/15 04:02:21;;;;;;;3.20;1.98;;;;;;;6.20;100.00;100349.50;6270360;28;20171;-75
2022/02/15 04:05:22;;;;;;;4.43;1.90;;;;;;;6.15;100.00;100351.47;6271336;28;20053;-76
2022/02/15 04:08:25;;;;;;;7.75;2.45;;;;;;;6.16;100.00;100360.13;6276312;28;20086;-76
2022/02/15 04:11:26;;;;;;;7.60;2.30;;;;;;;6.15;100.00;100354.06;6282692;28;20415;-76
2022/02/15 04:14:28;;;;;;;3.25;2.28;;;;;;;6.18;100.00;100358.31;6274817;28;20052;-75
2022/02/15 04:17:29;;;;;;;4.97;2.58;;;;;;;6.35;100.00;100377.56;6274774;28;20047;-76
2022/02/15 04:20:30;;;;;;;6.90;2.13;;;;;;;6.35;100.00;100380.16;6274456;28;20381;-76
2022/02/15 04:23:33;;;;;;;5.13;2.60;;;;;;;6.34;100.00;100385.47;6274632;28;20049;-75
2022/02/15 04:26:34;;;;;;;3.10;1.92;;;;;;;6.41;100.00;100392.13;6274595;28;20386;-76
2022/02/15 04:29:36;;;;;;;3.92;2.20;;;;;;;6.37;100.00;100393.16;6274500;28;20052;-76
2022/02/15 04:32:37;;;;;;;4.80;2.35;;;;;;;6.50;100.00;100396.97;6274231;28;20041;-75
2022/02/15 04:35:39;;;;;;;4.25;2.13;;;;;;;6.47;100.00;100401.47;6274575;28;20060;-76
2022/02/15 04:38:41;;;;;;;5.88;2.25;;;;;;;6.46;100.00;100403.22;6274354;28;20045;-76
2022/02/15 04:41:43;;;;;;;6.90;3.00;;;;;;;6.50;100.00;100404.81;6273967;28;20048;-75
2022/02/15 04:44:44;;;;;;;7.03;3.10;;;;;;;6.43;100.00;100420.78;6275911;28;20064;-75
2022/02/15 04:47:46;;;;;;;3.03;2.28;;;;;;;6.38;100.00;100410.53;6280820;28;20052;-76
2022/02/15 04:50:47;;;;;;;3.38;2.10;;;;;;;6.40;100.00;100411.28;6285809;28;20045;-75
2022/02/15 04:53:50;;;;;;;5.43;2.60;;;;;;;6.36;100.00;100420.19;6285188;28;20511;-76
2022/02/15 04:56:52;;;;;;;3.10;1.80;;;;;;;6.42;100.00;100422.53;6286220;28;20040;-75
2022/02/15 04:59:53;;;;;;;3.47;2.15;;;;;;;6.38;100.00;100428.78;6285356;28;20438;-74
2022/02/15 05:02:54;;;;;;;5.00;2.58;;;;;;;6.32;100.00;100423.84;6285773;28;20048;-75
2022/02/15 05:05:56;;;;;;;4.28;2.58;;;;;;;6.42;100.00;100438.19;6285732;28;20052;-75
2022/02/15 05:08:59;;;;;;;4.00;2.10;;;;;;;6.34;100.00;100435.03;6291904;28;20519;-75
2022/02/15 05:12:00;;;;;;;5.65;2.33;;;;;;;6.32;100.00;100442.94;6284136;28;20041;-75
2022/02/15 05:15:01;;;;;;;7.00;2.08;;;;;;;6.28;100.00;100443.97;6292583;28;20040;-76
2022/02/15 05:18:03;;;;;;;3.28;2.30;;;;;;;6.29;100.00;100450.88;6297499;28;20048;-75
2022/02/15 05:21:05;;;;;;;5.10;2.15;;;;;;;6.18;100.00;100450.47;6297900;28;20048;-76
2022/02/15 05:24:08;;;;;;;9.35;2.33;;;;;;;6.18;100.00;100450.47;6297997;28;20411;-75
2022/02/15 05:27:10;;;;;;;4.55;2.08;;;;;;;6.08;100.00;100446.50;6298033;28;20044;-74
2022/02/15 05:30:12;;;;;;;3.72;2.50;;;;;;;6.04;100.00;100452.75;6297952;28;20393;-75
2022/02/15 05:33:13;;;;;;;5.63;2.35;;;;;;;5.98;100.00;100458.22;6297838;28;20048;-76
2022/02/15 05:36:15;;;;;;;5.45;2.63;;;;;;;6.03;100.00;100459.75;6297960;28;20052;-76
2022/02/15 05:39:18;;;;;;;5.32;3.00;;;;;;;6.00;100.00;100465.09;6297714;28;20048;-76
2022/02/15 05:42:20;;;;;;;4.70;2.40;;;;;;;6.02;100.00;100454.59;6297586;28;20044;-76
2022/02/15 05:45:21;;;;;;;7.18;3.33;;;;;;;5.98;100.00;100466.91;6297595;28;20476;-75
2022/02/15 05:48:22;;;;;;;4.35;2.58;;;;;;;6.12;100.00;100471.56;6297415;28;20056;-74
2022/02/15 05:51:24;;;;;;;4.00;2.20;;;;;;;6.07;100.00;100469.16;6297209;28;20048;-76
2022/02/15 05:54:26;;;;;;;4.35;2.70;;;;;;;6.00;100.00;100474.69;6297275;28;20048;-76
2022/02/15 05:57:29;;;;;;;9.13;2.50;;;;;;;5.98;100.00;100474.72;6293280;28;20067;-76
2022/02/15 06:00:30;;;;;;;6.93;2.67;;;;;;;5.96;100.00;100473.94;6276713;28;20071;-75
2022/02/15 06:06:50;;;;;;;2.65;2.10;;;;;;;5.96;100.00;100488.75;6286389;28;20052;-76
2022/02/15 06:09:53;;;;;;;6.72;2.80;;;;;;;5.96;100.00;100493.97;6283080;28;20044;-75
2022/02/15 06:12:54;;;;;;;6.28;2.80;;;;;;;5.98;100.00;100489.53;6286199;28;20048;-75
2022/02/15 06:15:56;;;;;;;3.45;2.53;;;;;;;5.98;100.00;100494.75;6283984;28;20045;-75
2022/02/15 06:19:00;;;;;;;3.65;2.10;;;;;;;5.97;100.00;100498.28;6280658;28;20051;-76
2022/02/15 06:22:03;;;;;;;4.78;2.60;;;;;;;5.98;100.00;100497.34;6277324;28;20045;-76
2022/02/15 06:25:06;;;;;;;6.40;2.30;;;;;;;5.96;100.00;100509.63;6284858;28;20063;-77
2022/02/15 06:28:07;;;;;;;4.85;2.90;;;;;;;5.94;100.00;100506.19;6284269;28;20048;-76
2022/02/15 06:31:10;;;;;;;7.95;3.10;;;;;;;5.91;100.00;100508.91;6271637;28;20059;-76
2022/02/15 06:34:11;;;;;;;5.53;2.60;;;;;;;5.93;100.00;100507.13;6272057;28;20044;-76
2022/02/15 06:37:15;;;;;;;4.20;2.53;;;;;;;5.88;100.00;100515.09;6271824;28;20052;-75
2022/02/15 06:40:20;;;;;;;5.97;2.53;;;;;;;5.89;100.00;100513.31;6271586;28;20057;-76
2022/02/15 06:43:21;;;;;;;5.15;2.45;;;;;;;5.91;100.00;100524.56;6271414;28;20088;-75
2022/02/15 06:46:22;;;;;;;3.95;2.17;;;;;;;5.90;100.00;100531.50;6287997;28;20495;-75
2022/02/15 06:49:24;;;;;;;6.75;2.63;;;;;;;5.92;100.00;100532.34;6296498;28;20518;-75
2022/02/15 06:52:25;;;;;;;3.83;2.20;;;;;;;5.90;100.00;100531.50;6296197;28;20044;-75
2022/02/15 06:55:28;;;;;;;6.18;2.88;;;;;;;5.89;100.00;100527.19;6296463;28;20053;-75
2022/02/15 06:58:29;;;;;;;5.35;2.78;;;;;;;5.88;100.00;100535.09;6296277;28;20049;-75
2022/02/15 07:01:31;;;;;;;5.03;2.72;;;;;;;5.87;100.00;100551.66;6278580;28;20048;-74
2022/02/15 07:04:32;;;;;;;5.20;2.63;;;;;;;5.86;100.00;100553.41;6270965;28;20052;-75
2022/02/15 07:07:34;;;;;;;5.38;2.25;;;;;;;5.88;100.00;100555.97;6271442;28;20069;-75
2022/02/15 07:10:37;;;;;;;4.93;2.80;;;;;;;5.87;100.00;100562.94;6270876;28;20044;-75
2022/02/15 07:13:38;;;;;;;5.47;2.67;;;;;;;5.90;100.00;100567.16;6270834;28;20041;-75
2022/02/15 07:16:43;;;;;;;5.50;2.75;;;;;;;5.90;100.00;100575.84;6271011;28;20049;-75
2022/02/15 07:19:44;;;;;;;6.10;2.55;;;;;;;5.90;100.00;100585.44;6270750;28;20049;-75
2022/02/15 07:22:45;;;;;;;5.68;2.30;;;;;;;5.91;100.00;100587.16;6270981;28;20056;-75
2022/02/15 07:25:49;;;;;;;4.63;2.67;;;;;;;5.94;100.00;100592.25;6270815;28;20049;-75
2022/02/15 07:28:51;;;;;;;4.68;2.58;;;;;;;5.97;100.00;100595.63;6271087;28;20056;-75
2022/02/15 07:31:52;;;;;;;6.45;3.13;;;;;;;5.96;100.00;100598.28;6270588;28;20084;-75
2022/02/15 07:34:56;;;;;;;6.28;2.85;;;;;;;6.02;100.00;100611.94;6271192;28;20048;-74
2022/02/15 07:37:57;;;;;;;4.82;2.58;;;;;;;6.01;100.00;100615.47;6270895;28;20106;-75
2022/02/15 07:41:00;;;;;;;5.28;2.95;;;;;;;5.99;100.00;100606.00;6272226;28;20640;-75
2022/02/15 07:44:01;;;;;;;4.45;2.58;;;;;;;6.00;100.00;100610.31;6275523;28;20045;-76
2022/02/15 07:47:04;;;;;;;4.28;2.03;;;;;;;5.99;100.00;100616.41;6275459;28;20048;-75
2022/02/15 07:50:06;;;;;;;3.70;2.30;;;;;;;5.98;100.00;100623.41;6275269;28;20064;-76
2022/02/15 07:53:07;;;;;;;3.15;1.95;;;;;;;5.99;100.00;100617.28;6276844;28;20508;-75
2022/02/15 07:56:10;;;;;;;4.70;2.45;;;;;;;6.02;100.00;100624.16;6284941;28;20135;-75
2022/02/15 07:59:11;;;;;;;5.05;2.60;;;;;;;6.04;100.00;100624.94;6282125;28;20053;-75
2022/02/15 08:02:12;;;;;;;5.57;2.72;;;;;;;6.01;100.00;100628.50;6286205;28;20689;-75
2022/02/15 08:05:14;;;;;;;5.35;2.47;;;;;;;5.98;100.00;100622.56;6283791;28;20052;-76
2022/02/15 08:08:17;;;;;;;4.57;1.90;;;;;;;5.97;100.00;100631.28;6290372;28;20408;-76
2022/02/15 08:11:20;;;;;;;5.18;2.80;;;;;;;5.91;100.00;100629.72;6299585;28;20056;-74
2022/02/15 08:14:22;;;;;;;6.15;2.17;;;;;;;5.93;100.00;100638.38;6282018;28;20493;-77
2022/02/15 08:17:23;;;;;;;4.90;1.83;;;;;;;5.87;100.00;100642.94;6291369;28;20053;-75
2022/02/15 08:20:25;;;;;;;5.45;2.13;;;;;;;5.93;100.00;100646.19;6297285;28;20052;-75
2022/02/15 08:23:26;;;;;;;4.93;2.30;;;;;;;5.91;100.00;100641.91;6295432;28;20052;-76
2022/02/15 08:26:31;;;;;;;4.10;2.17;;;;;;;5.92;100.00;100641.03;6283862;28;20065;-76
2022/02/15 08:29:32;;;;;;;6.82;2.95;;;;;;;6.05;100.00;100645.75;6278182;28;20080;-77
2022/02/15 08:32:34;;;;;;;5.22;2.45;;;;;;;6.17;100.00;100648.81;6274322;28;20131;-76
2022/02/15 08:35:35;;;;;;;4.57;3.08;;;;;;;6.29;100.00;100654.44;6274561;28;20393;-77
2022/02/15 08:38:37;;;;;;;3.33;2.10;;;;;;;6.35;100.00;100664.63;6274774;28;20159;-78
2022/02/15 08:41:40;;;;;;;5.13;3.20;;;;;;;6.37;100.00;100658.53;6286384;28;20499;-77
2022/02/15 08:44:41;;;;;;;6.10;3.10;;;;;;;6.29;100.00;100662.25;6274671;28;20056;-76
2022/02/15 08:47:42;;;;;;;6.05;2.28;;;;;;;6.31;100.00;100662.19;6274428;28;20496;-78
2022/02/15 08:50:44;;;;;;;4.80;2.78;;;;;;;6.38;100.00;100662.84;6274334;28;20056;-77
2022/02/15 08:53:48;;;;;;;4.22;2.55;;;;;;;6.38;100.00;100670.66;6273139;28;20048;-77
2022/02/15 08:56:51;;;;;;;5.05;2.65;;;;;;;6.46;100.00;100674.69;6274362;28;20049;-77
2022/02/15 08:59:53;;;;;;;6.53;3.17;;;;;;;6.47;100.00;100678.16;6274165;28;20045;-77
2022/02/15 09:02:54;;;;;;;4.28;2.35;;;;;;;6.48;100.00;100667.66;6274613;28;20059;-78
2022/02/15 09:05:56;;;;;;;5.70;2.83;;;;;;;6.47;100.00;100667.72;6274733;28;20056;-77
2022/02/15 09:08:57;;;;;;;7.57;2.45;;;;;;;6.46;100.00;100679.06;6274105;28;20053;-77
2022/02/15 09:12:01;;;;;;;4.80;2.78;;;;;;;6.55;100.00;100683.94;6273457;28;20139;-78
2022/02/15 09:15:03;;;;;;;5.32;2.88;;;;;;;6.63;100.00;100681.88;6273986;28;20553;-77
2022/02/15 09:18:04;;;;;;;4.85;3.00;;;;;;;6.64;100.00;100686.22;6273705;28;20056;-78
2022/02/15 09:21:05;;;;;;;6.78;3.45;;;;;;;6.80;100.00;100683.84;6273870;28;20501;-78
2022/02/15 09:24:09;;;;;;;7.13;3.80;;;;;;;6.69;100.00;100691.25;6273787;28;20051;-78
2022/02/15 09:27:11;;;;;;;6.47;3.53;;;;;;;6.66;100.00;100689.59;6273737;28;20139;-77
2022/02/15 09:30:13;;;;;;;9.07;4.32;;;;;;;6.69;100.00;100701.69;6274529;28;20045;-78
2022/02/15 09:33:14;;;;;;;9.75;3.80;;;;;;;6.71;100.00;100705.09;6273770;28;20049;-78
2022/02/15 09:36:16;;;;;;;8.10;4.32;;;;;;;6.77;100.00;100704.88;6273303;28;20416;-77
2022/02/15 09:39:17;;;;;;;6.43;3.55;;;;;;;6.71;100.00;100705.09;6273511;28;20061;-77
2022/02/15 09:42:20;;;;;;;11.43;4.38;;;;;;;6.81;100.00;100704.69;6273073;28;20049;-77
2022/02/15 09:45:21;;;;;;;8.60;4.72;;;;;;;6.75;100.00;100706.69;6273366;28;20049;-78
2022/02/15 09:48:24;;;;;;;6.32;3.60;;;;;;;6.80;100.00;100709.97;6273141;28;20056;-78
2022/02/15 09:51:26;;;;;;;10.52;4.28;;;;;;;6.82;100.00;100708.16;6272831;28;20064;-77
2022/02/15 09:54:30;;;;;;;7.72;4.63;;;;;;;6.92;100.00;100706.88;6272540;28;20420;-77
2022/02/15 09:57:32;;;;;;;9.52;3.83;;;;;;;6.88;100.00;100700.06;6276179;28;20491;-78
2022/02/15 10:00:34;;;;;;;6.82;3.60;;;;;;;6.92;100.00;100709.50;6281465;28;20049;-77
2022/02/15 10:03:35;;;;;;;6.57;3.83;;;;;;;7.04;100.00;100705.53;6281279;28;20091;-77
2022/02/15 10:06:40;;;;;;;14.38;4.97;;;;;;;7.07;100.00;100716.72;6283232;28;20048;-78
2022/02/15 10:09:42;;;;;;;8.02;4.10;;;;;;;7.02;100.00;100712.59;6280448;28;20076;-77
2022/02/15 10:12:45;;;;;;;9.07;4.65;;;;;;;6.95;100.00;100711.13;6272866;28;20056;-78
2022/02/15 10:15:48;;;;;;;9.65;4.60;;;;;;;6.94;100.00;100715.50;6276405;28;20043;-78
2022/02/15 10:18:56;;;;;;;9.27;3.88;;;;;;;6.94;100.00;100710.28;6288508;28;20059;-77
2022/02/15 10:21:58;;;;;;;8.70;4.47;;;;;;;6.92;100.00;100719.09;6287837;28;20041;-78
2022/02/15 10:24:59;;;;;;;8.95;4.20;;;;;;;6.89;100.00;100722.66;6271878;28;20049;-77
2022/02/15 10:28:11;;;;;;;10.70;4.63;;;;;;;6.70;100.00;100726.91;6271788;28;20421;-77
2022/02/15 10:31:15;;;;;;;11.65;3.92;;;;;;;6.55;100.00;100730.94;6271632;28;20057;-77
2022/02/15 10:34:16;;;;;;;6.85;3.33;;;;;;;6.23;100.00;100740.78;6274998;28;20141;-77
2022/02/15 10:37:18;;;;;;;7.22;3.58;;;;;;;6.17;100.00;100722.72;6294893;28;20045;-77
2022/02/15 10:40:20;;;;;;;6.32;3.63;;;;;;;6.19;100.00;100723.53;6288675;28;20055;-77
2022/02/15 10:43:23;;;;;;;8.13;3.90;;;;;;;6.21;100.00;100726.06;6296608;28;20488;-78
2022/02/15 10:46:28;;;;;;;7.65;3.55;;;;;;;6.27;100.00;100724.13;6296679;28;20040;-78
2022/02/15 10:49:30;;;;;;;5.85;3.40;;;;;;;6.33;100.00;100728.25;6297003;28;20063;-77
2022/02/15 10:52:32;;;;;;;7.45;4.05;;;;;;;6.41;100.00;100717.53;6296673;28;20057;-77
2022/02/15 10:55:34;;;;;;;6.60;3.47;;;;;;;6.52;100.00;100723.22;6296962;28;20044;-78
2022/02/15 10:58:37;;;;;;;8.32;3.88;;;;;;;6.58;100.00;100721.22;6296738;28;20044;-77
2022/02/15 11:01:41;;;;;;;7.00;3.22;;;;;;;6.65;100.00;100726.22;6295922;28;20048;-77
2022/02/15 11:04:44;;;;;;;3.30;2.17;;;;;;;6.62;100.00;100735.00;6296327;28;20115;-78
2022/02/15 11:07:45;;;;;;;2.40;1.60;;;;;;;6.60;100.00;100744.66;6296740;28;20404;-77
2022/02/15 11:10:55;;;;;;;3.20;2.10;;;;;;;6.56;100.00;100741.31;6273254;28;20057;-77
2022/02/15 11:13:58;;;;;;;3.67;1.27;;;;;;;6.67;100.00;100740.06;6271961;28;20056;-77
2022/02/15 11:16:59;;;;;;;1.63;0.80;;;;;;;6.62;100.00;100735.00;6274817;28;20057;-76
2022/02/15 11:20:05;;;;;;;2.97;1.45;;;;;;;6.69;100.00;100739.09;6276590;28;20072;-77
2022/02/15 11:23:06;;;;;;;1.23;1.13;;;;;;;6.67;100.00;100733.06;6276215;28;20052;-76
2022/02/15 11:26:11;;;;;;;2.40;1.20;;;;;;;6.71;100.00;100733.81;6276267;28;20041;-76
2022/02/15 11:29:21;;;;;;;2.78;1.30;;;;;;;6.79;100.00;100731.78;6276243;28;20420;-78
2022/02/15 11:32:24;;;;;;;4.20;1.67;;;;;;;6.81;100.00;100724.72;6285394;28;20052;-77
2022/02/15 11:35:32;;;;;;;3.35;2.08;;;;;;;6.91;100.00;100728.69;6300986;28;20048;-78
2022/02/15 11:38:34;;;;;;;6.47;3.17;;;;;;;6.96;100.00;100733.75;6301098;28;20057;-77
2022/02/15 11:41:43;;;;;;;9.93;3.83;;;;;;;6.95;100.00;100726.78;6300293;28;20055;-77
2022/02/15 11:44:46;;;;;;;13.27;4.60;;;;;;;6.98;100.00;100722.31;6301563;28;20071;-77
2022/02/15 11:47:48;;;;;;;8.52;3.60;;;;;;;7.09;100.00;100716.69;6300621;28;20635;-77
2022/02/15 11:50:52;;;;;;;9.38;4.03;;;;;;;7.47;100.00;100712.53;6300434;28;20403;-78
2022/02/15 11:53:59;;;;;;;8.90;4.07;;;;;;;7.57;100.00;100703.38;6300931;28;20052;-77
2022/02/15 11:57:01;;;;;;;8.93;4.53;;;;;;;7.54;100.00;100708.75;6293974;28;20132;-77
2022/02/15 12:00:06;;;;;;;8.60;4.57;;;;;;;7.59;100.00;100692.88;6296025;28;20055;-77
2022/02/15 12:03:08;;;;;;;8.70;4.53;;;;;;;7.62;100.00;100700.56;6292309;28;20067;-78
2022/02/15 12:06:09;;;;;;;9.02;4.72;;;;;;;7.73;100.00;100697.53;6300288;28;20045;-77
2022/02/15 12:09:10;;;;;;;11.40;5.15;;;;;;;7.72;100.00;100693.19;6290121;28;20068;-77
2022/02/15 12:12:12;;;;;;;12.40;4.75;;;;;;;7.91;100.00;100693.28;6276638;28;20056;-79
2022/02/15 12:15:15;;;;;;;15.48;5.65;;;;;;;8.10;100.00;100692.38;6275810;28;20049;-77
2022/02/15 12:18:27;;;;;;;11.27;4.68;;;;;;;8.10;100.00;100689.78;6275568;28;20508;-78
2022/02/15 12:21:38;;;;;;;11.15;5.72;;;;;;;7.86;100.00;100683.00;6284000;28;20591;-79
2022/02/15 12:24:39;;;;;;;15.38;6.00;;;;;;;7.93;100.00;100683.56;6299909;28;20051;-77
2022/02/15 12:27:42;;;;;;;13.95;5.93;;;;;;;8.22;100.00;100675.31;6299320;28;20049;-77
2022/02/15 12:30:45;;;;;;;18.33;6.72;;;;;;;8.51;100.00;100671.38;6278579;28;20041;-78
2022/02/15 12:33:46;;;;;;;15.60;7.03;;;;;;;8.73;100.00;100678.25;6274747;28;20048;-77
2022/02/15 12:36:48;;;;;;;12.88;6.60;;;;;;;9.09;100.00;100668.66;6274683;28;20056;-76
2022/02/15 12:39:52;;;;;;;14.00;6.22;;;;;;;9.07;100.00;100675.72;6274143;28;20470;-78
2022/02/15 12:42:54;;;;;;;15.63;5.85;;;;;;;8.73;100.00;100684.34;6274134;28;20049;-77
2022/02/15 12:45:57;;;;;;;16.60;6.88;;;;;;;8.34;100.00;100682.59;6281289;28;20083;-77
2022/02/15 12:48:59;;;;;;;11.90;5.65;;;;;;;8.16;100.00;100690.41;6277541;28;20045;-79
2022/02/15 12:52:00;;;;;;;12.70;6.60;;;;;;;7.99;100.00;100685.91;6283644;28;20097;-77
2022/02/15 12:55:10;;;;;;;12.73;5.88;;;;;;;7.83;100.00;100678.75;6286340;28;20499;-77
2022/02/15 12:58:13;;;;;;;14.55;6.32;;;;;;;7.77;100.00;100672.94;6277408;28;20047;-78
2022/02/15 13:01:18;;;;;;;15.02;6.00;;;;;;;7.87;100.00;100664.63;6298802;28;20182;-75
2022/02/15 13:04:19;;;;;;;12.82;5.72;;;;;;;8.01;100.00;100673.63;6282205;28;20048;-76
2022/02/15 13:07:21;;;;;;;11.50;5.72;;;;;;;8.27;100.00;100659.38;6273797;28;20504;-76
2022/02/15 13:10:24;;;;;;;13.85;5.25;;;;;;;8.52;100.00;100652.13;6273772;28;20103;-76
2022/02/15 13:13:26;;;;;;;15.07;5.05;;;;;;;8.72;100.00;100648.59;6273645;28;20053;-76
2022/02/15 13:16:40;;;;;;;9.75;4.78;;;;;;;8.86;99.24;100640.06;6273997;28;20111;-77
2022/02/15 13:19:41;;;;;;;8.65;4.28;;;;;;;8.94;99.40;100653.63;6273263;28;20084;-76
2022/02/15 13:22:43;;;;;;;8.00;4.35;;;;;;;8.63;98.43;100656.88;6273405;28;20053;-77
2022/02/15 13:25:47;;;;;;;7.95;3.85;;;;;;;8.51;98.52;100644.34;6273399;28;20041;-76
2022/02/15 13:28:48;;;;;;;7.22;3.70;;;;;;;8.40;99.19;100636.97;6273537;28;20095;-76
2022/02/15 13:31:53;;;;;;;12.75;4.03;;;;;;;8.37;99.88;100639.75;6273292;28;20080;-76
2022/02/15 13:34:54;;;;;;;8.27;4.00;;;;;;;8.76;98.85;100630.94;6273450;28;20053;-76
2022/02/15 13:37:58;;;;;;;8.25;4.03;;;;;;;9.17;96.51;100625.47;6272876;28;20567;-76
2022/02/15 13:40:59;;;;;;;7.13;4.30;;;;;;;9.38;91.34;100632.25;6272848;28;20044;-76
2022/02/15 13:44:03;;;;;;;7.43;4.00;;;;;;;9.30;91.97;100627.38;6273108;28;20059;-77
2022/02/15 13:47:06;;;;;;;6.60;4.00;;;;;;;8.77;94.07;100627.41;6272727;28;20048;-76
2022/02/15 13:50:07;;;;;;;9.13;4.32;;;;;;;8.99;95.58;100614.09;6273082;28;20056;-77
2022/02/15 13:53:09;;;;;;;5.32;3.25;;;;;;;9.31;93.97;100607.25;6272680;28;20212;-77
2022/02/15 13:56:10;;;;;;;7.38;3.70;;;;;;;9.09;92.79;100608.34;6273137;28;20725;-77
2022/02/15 13:59:13;;;;;;;7.20;3.42;;;;;;;9.03;94.17;100616.50;6272396;28;20049;-77
2022/02/15 14:02:15;;;;;;;6.70;3.55;;;;;;;8.82;94.33;100600.06;6277374;28;20063;-77
2022/02/15 14:05:17;;;;;;;6.68;3.60;;;;;;;8.56;93.43;100600.44;6288627;28;20524;-77
2022/02/15 14:08:18;;;;;;;7.65;2.90;;;;;;;8.43;92.77;100594.94;6297090;28;20049;-78
2022/02/15 14:11:20;;;;;;;6.68;3.67;;;;;;;8.26;94.30;100598.31;6282186;28;20063;-76
2022/02/15 14:14:21;;;;;;;5.35;3.08;;;;;;;8.23;94.88;100598.47;6273530;28;20049;-77